createdAt,value
2017-12-04T00:02:19.943Z,26.97
2017-12-04T00:04:47.315Z,28.17
2017-12-04T00:07:15.284Z,27.10
2017-12-04T00:09:42.702Z,27.73
2017-12-04T00:12:10.127Z,26.23
2017-12-04T00:14:37.543Z,26.97
2017-12-04T00:17:05.754Z,26.73
2017-12-04T00:19:34.195Z,25.47
2017-12-04T00:22:01.562Z,24.53
2017-12-04T00:24:28.992Z,25.43
2017-12-04T00:26:56.411Z,25.60
2017-12-04T00:29:23.832Z,25.43
2017-12-04T00:31:53.115Z,24.53
2017-12-04T00:34:21.300Z,25.57
2017-12-04T00:36:51.622Z,25.90
2017-12-04T00:39:20.333Z,26.13
2017-12-04T00:41:47.756Z,25.60
2017-12-04T00:44:15.952Z,25.90
2017-12-04T00:46:43.795Z,26.07
2017-12-04T00:49:11.983Z,25.43
2017-12-04T00:51:40.189Z,25.27
2017-12-04T00:54:07.607Z,24.77
2017-12-04T00:56:35.794Z,24.63
2017-12-04T00:59:03.226Z,24.63
2017-12-04T01:01:30.662Z,23.23
2017-12-04T01:03:58.067Z,24.30
2017-12-04T01:06:26.672Z,25.00
2017-12-04T01:08:54.095Z,22.60
2017-12-04T01:11:22.678Z,24.20
2017-12-04T01:13:50.871Z,23.80
2017-12-04T01:16:18.291Z,23.40
2017-12-04T01:18:45.711Z,23.77
2017-12-04T01:21:13.130Z,21.93
2017-12-04T01:23:40.559Z,23.73
2017-12-04T01:26:07.978Z,22.00
2017-12-04T01:28:35.402Z,24.57
2017-12-04T01:31:03.383Z,23.60
2017-12-04T01:33:30.811Z,22.93
2017-12-04T01:35:59.411Z,24.33
2017-12-04T01:38:26.838Z,24.57
2017-12-04T01:40:54.259Z,23.97
2017-12-04T01:43:21.692Z,24.30
2017-12-04T01:45:49.111Z,23.03
2017-12-04T01:48:16.535Z,23.77
2017-12-04T01:50:43.953Z,24.30
2017-12-04T01:53:11.379Z,24.17
2017-12-04T01:55:39.733Z,24.33
2017-12-04T01:58:07.150Z,23.63
2017-12-04T02:00:34.581Z,25.27
2017-12-04T02:03:02.540Z,24.17
2017-12-04T02:05:29.972Z,23.10
2017-12-04T02:07:57.400Z,24.07
2017-12-04T02:10:25.544Z,24.10
2017-12-04T02:12:53.735Z,22.40
2017-12-04T02:15:21.154Z,21.10
2017-12-04T02:17:48.578Z,21.27
2017-12-04T02:20:16.004Z,21.17
2017-12-04T02:22:46.865Z,18.30
2017-12-04T02:25:14.294Z,18.23
2017-12-04T02:27:41.709Z,18.23
2017-12-04T02:30:09.124Z,18.40
2017-12-04T02:32:36.538Z,18.13
2017-12-04T02:35:04.739Z,19.40
2017-12-04T02:37:33.037Z,17.80
2017-12-04T02:40:00.438Z,18.50
2017-12-04T02:42:27.859Z,21.47
2017-12-04T02:44:55.284Z,21.23
2017-12-04T02:47:22.706Z,22.40
2017-12-04T02:49:50.142Z,22.53
2017-12-04T02:52:17.580Z,23.03
2017-12-04T02:54:44.997Z,24.00
2017-12-04T02:57:13.182Z,21.90
2017-12-04T02:59:40.607Z,23.13
2017-12-04T03:02:08.032Z,24.03
2017-12-04T03:04:35.450Z,22.73
2017-12-04T03:07:02.875Z,23.90
2017-12-04T03:09:30.294Z,23.77
2017-12-04T03:11:58.331Z,22.30
2017-12-04T03:14:25.754Z,22.23
2017-12-04T03:16:53.183Z,21.07
2017-12-04T03:19:21.143Z,21.87
2017-12-04T03:21:48.855Z,21.53
2017-12-04T03:24:16.264Z,21.00
2017-12-04T03:26:44.227Z,22.67
2017-12-04T03:29:11.643Z,21.73
2017-12-04T03:31:39.830Z,20.90
2017-12-04T03:34:07.254Z,21.63
2017-12-04T03:36:34.671Z,22.47
2017-12-04T03:39:02.506Z,21.50
2017-12-04T03:41:31.483Z,20.83
2017-12-04T03:44:01.322Z,22.37
2017-12-04T03:46:28.743Z,21.17
2017-12-04T03:48:56.947Z,21.00
2017-12-04T03:51:25.151Z,22.87
2017-12-04T03:53:52.563Z,22.37
2017-12-04T03:56:20.781Z,22.00
2017-12-04T03:58:49.554Z,22.10
2017-12-04T04:01:17.524Z,21.83
2017-12-04T04:03:45.508Z,21.97
2017-12-04T04:06:12.939Z,22.20
2017-12-04T04:08:42.831Z,20.87
2017-12-04T04:11:10.243Z,22.60
2017-12-04T04:13:37.670Z,21.17
2017-12-04T04:16:05.114Z,22.37
2017-12-04T04:18:33.303Z,20.70
2017-12-04T04:21:01.083Z,21.20
2017-12-04T04:23:29.242Z,22.47
2017-12-04T04:25:56.663Z,21.40
2017-12-04T04:28:24.087Z,20.20
2017-12-04T04:30:51.510Z,22.73
2017-12-04T04:33:18.938Z,20.70
2017-12-04T04:35:46.348Z,21.10
2017-12-04T04:38:13.769Z,20.97
2017-12-04T04:40:42.179Z,21.37
2017-12-04T04:43:09.603Z,22.13
2017-12-04T04:45:37.790Z,22.80
2017-12-04T04:48:05.210Z,21.90
2017-12-04T04:50:32.631Z,23.07
2017-12-04T04:53:00.854Z,22.33
2017-12-04T04:55:29.038Z,21.70
2017-12-04T04:57:57.227Z,20.80
2017-12-04T05:00:25.083Z,20.53
2017-12-04T05:02:53.262Z,20.87
2017-12-04T05:05:21.439Z,19.53
2017-12-04T05:07:48.864Z,19.73
2017-12-04T05:10:16.286Z,20.27
2017-12-04T05:12:44.259Z,18.30
2017-12-04T05:15:11.678Z,21.10
2017-12-04T05:17:40.778Z,21.20
2017-12-04T05:20:08.208Z,19.57
2017-12-04T05:22:35.624Z,20.07
2017-12-04T05:25:03.049Z,18.70
2017-12-04T05:27:30.460Z,19.97
2017-12-04T05:29:58.410Z,19.13
2017-12-04T05:32:25.832Z,20.00
2017-12-04T05:34:53.253Z,17.30
2017-12-04T05:37:21.487Z,17.17
2017-12-04T05:39:49.452Z,16.83
2017-12-04T05:42:16.872Z,17.13
2017-12-04T05:44:45.494Z,16.77
2017-12-04T05:47:12.915Z,17.20
2017-12-04T05:49:41.110Z,17.30
2017-12-04T05:52:09.067Z,16.90
2017-12-04T05:54:36.486Z,16.47
2017-12-04T05:57:05.318Z,17.07
2017-12-04T05:59:32.743Z,17.10
2017-12-04T06:02:00.299Z,17.17
2017-12-04T06:04:28.141Z,17.13
2017-12-04T06:06:55.558Z,17.87
2017-12-04T06:09:22.976Z,18.40
2017-12-04T06:11:50.387Z,16.47
2017-12-04T06:14:17.918Z,16.70
2017-12-04T06:16:46.115Z,16.77
2017-12-04T06:19:13.531Z,16.33
2017-12-04T06:21:42.139Z,15.77
2017-12-04T06:24:09.547Z,16.77
2017-12-04T06:26:37.186Z,18.03
2017-12-04T06:29:10.514Z,17.07
2017-12-04T06:31:39.924Z,17.63
2017-12-04T06:34:07.363Z,16.87
2017-12-04T06:36:34.840Z,17.70
2017-12-04T06:39:02.309Z,17.57
2017-12-04T06:41:29.715Z,18.83
2017-12-04T06:43:57.165Z,18.43
2017-12-04T06:46:26.500Z,18.93
2017-12-04T06:48:53.923Z,18.67
2017-12-04T06:51:21.343Z,19.70
2017-12-04T06:53:49.942Z,19.83
2017-12-04T06:56:17.379Z,18.80
2017-12-04T06:58:44.784Z,18.60
2017-12-04T07:01:12.202Z,18.03
2017-12-04T07:03:39.627Z,18.03
2017-12-04T07:06:07.056Z,18.27
2017-12-04T07:08:34.483Z,17.97
2017-12-04T07:11:01.907Z,16.83
2017-12-04T07:13:30.099Z,18.07
2017-12-04T07:15:58.286Z,17.17
2017-12-04T07:18:26.623Z,17.00
2017-12-04T07:20:54.039Z,16.27
2017-12-04T07:23:21.470Z,15.53
2017-12-04T07:25:48.886Z,15.17
2017-12-04T07:28:16.323Z,15.87
2017-12-04T07:30:43.739Z,16.33
2017-12-04T07:33:11.160Z,15.70
2017-12-04T07:35:38.579Z,16.97
2017-12-04T07:38:06.007Z,19.40
2017-12-04T07:40:34.187Z,19.27
2017-12-04T07:43:01.613Z,18.23
2017-12-04T07:45:29.026Z,15.23
2017-12-04T07:47:56.451Z,15.13
2017-12-04T07:50:24.627Z,16.43
2017-12-04T07:52:52.054Z,16.40
2017-12-04T07:55:19.467Z,16.77
2017-12-04T07:57:47.792Z,17.13
2017-12-04T08:00:15.203Z,15.70
2017-12-04T08:02:42.638Z,16.63
2017-12-04T08:05:10.969Z,16.63
2017-12-04T08:07:38.390Z,16.57
2017-12-04T08:10:05.809Z,16.00
2017-12-04T08:12:33.995Z,14.27
2017-12-04T08:15:01.947Z,16.07
2017-12-04T08:17:30.139Z,14.00
2017-12-04T08:19:57.551Z,14.53
2017-12-04T08:22:25.395Z,14.77
2017-12-04T08:24:52.810Z,15.77
2017-12-04T08:27:20.229Z,14.00
2017-12-04T08:29:47.651Z,13.57
2017-12-04T08:32:15.062Z,14.93
2017-12-04T08:34:42.492Z,14.23
2017-12-04T08:37:09.911Z,14.53
2017-12-04T08:39:39.271Z,13.87
2017-12-04T08:42:06.688Z,13.33
2017-12-04T08:44:34.106Z,14.10
2017-12-04T08:47:02.288Z,13.67
2017-12-04T08:49:29.710Z,15.10
2017-12-04T08:51:57.126Z,14.63
2017-12-04T08:54:24.556Z,14.87
2017-12-04T08:56:51.974Z,14.50
2017-12-04T08:59:19.397Z,13.90
2017-12-04T09:01:46.815Z,13.97
2017-12-04T09:04:15.011Z,14.60
2017-12-04T09:06:42.423Z,13.63
2017-12-04T09:09:09.842Z,12.43
2017-12-04T09:11:37.263Z,13.47
2017-12-04T09:14:05.450Z,13.33
2017-12-04T09:16:32.867Z,13.37
2017-12-04T09:19:00.291Z,13.80
2017-12-04T09:21:27.702Z,13.33
2017-12-04T09:23:55.893Z,13.07
2017-12-04T09:26:23.879Z,13.43
2017-12-04T09:28:51.290Z,12.27
2017-12-04T09:31:19.496Z,12.60
2017-12-04T09:33:46.915Z,12.43
2017-12-04T09:36:15.484Z,12.07
2017-12-04T09:38:43.873Z,13.27
2017-12-04T09:41:11.834Z,12.47
2017-12-04T09:43:39.659Z,12.67
2017-12-04T09:46:08.199Z,12.63
2017-12-04T09:48:35.607Z,12.83
2017-12-04T09:51:03.032Z,13.60
2017-12-04T09:53:30.498Z,11.40
2017-12-04T09:55:58.841Z,12.67
2017-12-04T09:58:26.527Z,13.83
2017-12-04T10:00:53.933Z,12.90
2017-12-04T10:03:21.342Z,12.80
2017-12-04T10:05:48.764Z,13.27
2017-12-04T10:08:16.180Z,12.17
2017-12-04T10:10:43.603Z,12.30
2017-12-04T10:13:11.779Z,11.77
2017-12-04T10:15:39.966Z,11.37
2017-12-04T10:18:07.384Z,12.17
2017-12-04T10:20:34.811Z,12.70
2017-12-04T10:23:02.222Z,12.70
2017-12-04T10:25:31.199Z,12.20
2017-12-04T10:28:02.010Z,12.10
2017-12-04T10:30:29.448Z,12.47
2017-12-04T10:32:56.871Z,12.70
2017-12-04T10:35:24.290Z,13.57
2017-12-04T10:37:51.726Z,12.13
2017-12-04T10:40:19.145Z,12.77
2017-12-04T10:42:46.561Z,12.37
2017-12-04T10:45:13.978Z,11.93
2017-12-04T10:47:41.402Z,12.17
2017-12-04T10:50:10.127Z,12.30
2017-12-04T10:52:37.944Z,12.07
2017-12-04T10:55:05.348Z,12.87
2017-12-04T10:57:33.495Z,13.60
2017-12-04T11:00:00.915Z,12.47
2017-12-04T11:02:28.335Z,13.33
2017-12-04T11:04:55.755Z,13.40
2017-12-04T11:07:23.935Z,12.97
2017-12-04T11:09:51.351Z,13.67
2017-12-04T11:12:18.774Z,13.60
2017-12-04T11:14:46.195Z,13.83
2017-12-04T11:17:14.651Z,13.17
2017-12-04T11:19:42.043Z,14.37
2017-12-04T11:22:09.736Z,14.33
2017-12-04T11:24:37.729Z,15.03
2017-12-04T11:27:05.152Z,14.57
2017-12-04T11:29:47.297Z,14.87
2017-12-04T11:32:14.680Z,14.90
2017-12-04T11:34:50.678Z,15.47
2017-12-04T11:37:18.102Z,16.07
2017-12-04T11:39:47.024Z,15.83
2017-12-04T11:42:14.479Z,15.13
2017-12-04T11:44:41.903Z,14.67
2017-12-04T11:47:10.074Z,14.77
2017-12-04T11:49:38.580Z,13.70
2017-12-04T11:52:06.740Z,14.10
2017-12-04T11:54:34.195Z,14.03
2017-12-04T11:57:02.821Z,15.30
2017-12-04T11:59:30.245Z,14.70
2017-12-04T12:01:58.239Z,14.37
2017-12-04T12:04:25.657Z,14.50
2017-12-04T12:06:53.847Z,14.03
2017-12-04T12:09:21.274Z,14.47
2017-12-04T12:11:48.693Z,13.30
2017-12-04T12:14:17.327Z,13.60
2017-12-04T12:16:45.512Z,14.80
2017-12-04T12:19:13.856Z,13.63
2017-12-04T12:21:43.719Z,14.97
2017-12-04T12:24:11.139Z,14.83
2017-12-04T12:26:39.326Z,14.67
2017-12-04T12:29:08.055Z,15.43
2017-12-04T12:31:35.473Z,13.87
2017-12-04T12:34:04.552Z,13.67
2017-12-04T12:36:32.739Z,14.53
2017-12-04T12:39:00.927Z,13.97
2017-12-04T12:41:28.347Z,14.00
2017-12-04T12:43:58.381Z,13.83
2017-12-04T12:46:26.560Z,14.10
2017-12-04T12:48:54.746Z,13.33
2017-12-04T12:51:22.166Z,12.87
2017-12-04T12:53:49.579Z,12.87
2017-12-04T12:56:17.015Z,13.27
2017-12-04T12:58:45.898Z,12.23
2017-12-04T13:01:14.621Z,12.50
2017-12-04T13:03:42.043Z,11.83
2017-12-04T13:06:09.466Z,11.33
2017-12-04T13:08:36.885Z,12.50
2017-12-04T13:11:04.307Z,10.47
2017-12-04T13:13:32.493Z,10.57
2017-12-04T13:15:59.911Z,10.50
2017-12-04T13:18:27.335Z,10.93
2017-12-04T13:20:54.756Z,10.27
2017-12-04T13:23:22.935Z,8.97
2017-12-04T13:25:50.351Z,7.50
2017-12-04T13:28:19.775Z,8.03
2017-12-04T13:30:47.960Z,8.30
2017-12-04T13:33:27.871Z,7.50
2017-12-04T13:36:07.169Z,6.93
2017-12-04T13:38:34.593Z,7.70
2017-12-04T13:41:02.827Z,7.60
2017-12-04T13:43:30.966Z,6.67
2017-12-04T13:45:58.374Z,7.23
2017-12-04T13:48:25.791Z,7.67
2017-12-04T13:50:53.231Z,6.60
2017-12-04T13:53:20.652Z,6.37
2017-12-04T13:55:48.063Z,6.77
2017-12-04T13:58:23.829Z,7.07
2017-12-04T14:00:51.243Z,6.47
2017-12-04T14:03:19.428Z,6.87
2017-12-04T14:05:46.843Z,6.70
2017-12-04T14:08:14.274Z,7.33
2017-12-04T14:10:41.687Z,6.23
2017-12-04T14:13:17.690Z,6.00
2017-12-04T14:15:45.080Z,7.07
2017-12-04T14:18:12.515Z,6.97
2017-12-04T14:20:40.695Z,6.33
2017-12-04T14:23:08.123Z,6.40
2017-12-04T14:25:36.528Z,5.80
2017-12-04T14:28:04.014Z,6.20
2017-12-04T14:30:32.601Z,6.70
2017-12-04T14:33:00.786Z,6.27
2017-12-04T14:35:28.961Z,5.83
2017-12-04T14:37:56.413Z,6.03
2017-12-04T14:40:23.792Z,6.67
2017-12-04T14:42:51.634Z,6.23
2017-12-04T14:45:19.806Z,6.30
2017-12-04T14:47:48.009Z,6.57
2017-12-04T14:50:15.408Z,5.80
2017-12-04T14:52:43.238Z,6.83
2017-12-04T14:55:11.175Z,5.77
2017-12-04T14:57:39.367Z,6.27
2017-12-04T15:00:07.695Z,6.60
2017-12-04T15:02:35.107Z,6.03
2017-12-04T15:05:02.519Z,6.03
2017-12-04T15:07:30.248Z,5.97
2017-12-04T15:09:57.641Z,5.33
2017-12-04T15:12:25.051Z,5.60
2017-12-04T15:14:52.471Z,5.53
2017-12-04T15:17:20.654Z,5.40
2017-12-04T15:19:48.067Z,5.87
2017-12-04T15:22:15.471Z,5.60
2017-12-04T15:24:43.026Z,5.70
2017-12-04T15:27:11.187Z,5.93
2017-12-04T15:29:40.166Z,5.90
2017-12-04T15:32:07.574Z,6.40
2017-12-04T15:34:35.000Z,6.50
2017-12-04T15:37:03.175Z,5.90
2017-12-04T15:39:30.586Z,6.33
2017-12-04T15:41:57.993Z,6.83
2017-12-04T15:44:25.415Z,6.10
2017-12-04T15:46:52.820Z,5.77
2017-12-04T15:49:20.244Z,5.77
2017-12-04T15:51:48.410Z,5.60
2017-12-04T15:54:16.602Z,5.60
2017-12-04T15:56:45.295Z,5.50
2017-12-04T15:59:12.719Z,6.80
2017-12-04T16:01:40.129Z,5.77
2017-12-04T16:04:07.570Z,5.90
2017-12-04T16:06:35.407Z,5.40
2017-12-04T16:09:03.600Z,5.40
2017-12-04T16:11:32.201Z,5.50
2017-12-04T16:13:59.614Z,5.53
2017-12-04T16:16:27.456Z,5.17
2017-12-04T16:18:54.875Z,5.13
2017-12-04T16:21:22.290Z,6.13
2017-12-04T16:23:50.127Z,5.73
2017-12-04T16:26:17.545Z,5.47
2017-12-04T16:28:44.959Z,6.53
2017-12-04T16:31:12.377Z,6.20
2017-12-04T16:33:39.796Z,6.27
2017-12-04T16:36:07.982Z,6.03
2017-12-04T16:38:36.227Z,6.33
2017-12-04T16:41:03.607Z,7.00
2017-12-04T16:43:31.796Z,7.87
2017-12-04T16:45:59.207Z,8.20
2017-12-04T16:48:27.624Z,7.90
2017-12-04T16:50:57.012Z,8.27
2017-12-04T16:53:24.429Z,7.47
2017-12-04T16:55:51.844Z,8.60
2017-12-04T16:58:20.813Z,8.53
2017-12-04T17:00:48.235Z,8.27
2017-12-04T17:03:15.700Z,9.20
2017-12-04T17:05:43.170Z,8.70
2017-12-04T17:08:10.887Z,8.73
2017-12-04T17:10:39.052Z,9.53
2017-12-04T17:13:07.376Z,9.37
2017-12-04T17:15:34.804Z,9.53
2017-12-04T17:18:02.220Z,9.00
2017-12-04T17:20:34.395Z,9.50
2017-12-04T17:23:02.579Z,9.73
2017-12-04T17:25:30.000Z,9.70
2017-12-04T17:27:57.411Z,9.50
2017-12-04T17:30:24.836Z,9.50
2017-12-04T17:32:53.022Z,11.23
2017-12-04T17:35:20.447Z,10.73
2017-12-04T17:37:47.864Z,10.43
2017-12-04T17:40:15.285Z,10.97
2017-12-04T17:42:43.471Z,11.87
2017-12-04T17:45:10.897Z,11.33
2017-12-04T17:47:40.739Z,10.97
2017-12-04T17:50:08.159Z,10.57
2017-12-04T17:52:35.574Z,9.97
2017-12-04T17:55:15.258Z,10.67
2017-12-04T17:57:42.669Z,9.47
2017-12-04T18:00:10.309Z,10.90
2017-12-04T18:02:38.492Z,10.40
2017-12-04T18:05:05.918Z,11.17
2017-12-04T18:07:35.784Z,10.83
2017-12-04T18:10:03.213Z,11.53
2017-12-04T18:12:30.627Z,12.33
2017-12-04T18:14:58.051Z,11.53
2017-12-04T18:17:25.471Z,11.50
2017-12-04T18:19:53.663Z,12.40
2017-12-04T18:22:21.074Z,11.67
2017-12-04T18:24:48.503Z,12.57
2017-12-04T18:27:15.924Z,11.87
2017-12-04T18:29:43.347Z,11.83
2017-12-04T18:32:10.768Z,12.80
2017-12-04T18:34:50.705Z,11.80
2017-12-04T18:37:18.148Z,10.90
2017-12-04T18:39:45.636Z,10.50
2017-12-04T18:42:13.054Z,11.07
2017-12-04T18:44:41.255Z,10.43
2017-12-04T18:47:08.672Z,10.67
2017-12-04T18:49:36.859Z,11.40
2017-12-04T18:52:04.282Z,10.70
2017-12-04T18:54:31.822Z,11.53
2017-12-04T18:56:59.244Z,10.87
2017-12-04T18:59:26.651Z,10.00
2017-12-04T19:01:54.101Z,10.20
2017-12-04T19:04:22.332Z,10.10
2017-12-04T19:07:01.721Z,11.10
2017-12-04T19:09:29.648Z,11.07
2017-12-04T19:11:57.066Z,11.10
2017-12-04T19:14:25.247Z,11.27
2017-12-04T19:16:53.433Z,11.03
2017-12-04T19:19:20.872Z,11.77
2017-12-04T19:21:49.126Z,11.67
2017-12-04T19:24:16.585Z,12.10
2017-12-04T19:26:44.007Z,11.27
2017-12-04T19:29:11.429Z,11.93
2017-12-04T19:31:39.998Z,11.80
2017-12-04T19:34:08.907Z,11.50
2017-12-04T19:36:37.102Z,11.23
2017-12-04T19:39:04.514Z,11.60
2017-12-04T19:41:31.939Z,11.93
2017-12-04T19:43:59.359Z,11.00
2017-12-04T19:46:26.775Z,12.30
2017-12-04T19:48:54.199Z,13.47
2017-12-04T19:51:21.935Z,11.37
2017-12-04T19:53:50.258Z,12.37
2017-12-04T19:56:17.684Z,11.70
2017-12-04T19:58:45.117Z,12.07
2017-12-04T20:01:13.359Z,12.63
2017-12-04T20:03:40.830Z,12.17
2017-12-04T20:06:08.271Z,12.30
2017-12-04T20:08:35.739Z,11.40
2017-12-04T20:11:03.166Z,11.40
2017-12-04T20:16:23.870Z,12.90
2017-12-04T20:18:51.322Z,11.97
2017-12-04T20:21:18.767Z,11.57
2017-12-04T20:23:46.996Z,11.20
2017-12-04T20:26:14.463Z,11.60
2017-12-04T20:28:41.920Z,11.97
2017-12-04T20:31:09.391Z,11.73
2017-12-04T20:33:37.638Z,10.83
2017-12-04T20:36:05.071Z,11.50
2017-12-04T20:38:32.500Z,12.27
2017-12-04T20:40:59.927Z,12.20
2017-12-04T20:43:27.334Z,12.50
2017-12-04T20:45:54.756Z,12.10
2017-12-04T20:48:22.948Z,13.17
2017-12-04T20:50:50.358Z,12.93
2017-12-04T20:53:17.780Z,12.20
2017-12-04T20:55:45.199Z,12.97
2017-12-04T20:58:13.399Z,11.73
2017-12-04T21:00:40.816Z,12.90
2017-12-04T21:03:08.239Z,11.87
2017-12-04T21:05:35.658Z,12.73
2017-12-04T21:08:15.048Z,12.97
2017-12-04T21:10:54.303Z,12.50
2017-12-04T21:13:33.636Z,12.60
2017-12-04T21:16:26.691Z,12.13
2017-12-04T21:18:54.111Z,13.23
2017-12-04T21:21:21.526Z,12.40
2017-12-04T21:23:52.534Z,13.50
2017-12-04T21:26:19.959Z,13.03
2017-12-04T21:28:47.395Z,13.03
2017-12-04T21:31:14.852Z,12.87
2017-12-04T21:33:42.280Z,12.50
2017-12-04T21:36:10.466Z,12.97
2017-12-04T21:38:39.076Z,14.40
2017-12-04T21:41:07.339Z,13.87
2017-12-04T21:43:34.775Z,14.03
2017-12-04T21:46:03.035Z,12.90
2017-12-04T21:48:31.482Z,12.73
2017-12-04T21:50:58.943Z,13.80
2017-12-04T21:53:26.407Z,13.63
2017-12-04T21:55:54.835Z,13.43
2017-12-04T21:58:23.323Z,13.23
2017-12-04T22:00:50.794Z,12.70
2017-12-04T22:03:18.240Z,12.60
2017-12-04T22:05:46.269Z,12.87
2017-12-04T22:08:13.710Z,13.67
2017-12-04T22:10:41.907Z,12.93
2017-12-04T22:13:09.343Z,13.20
2017-12-04T22:15:37.012Z,14.70
2017-12-04T22:18:05.208Z,14.33
2017-12-04T22:20:33.785Z,13.57
2017-12-04T22:23:02.440Z,14.63
2017-12-04T22:25:29.931Z,14.13
2017-12-04T22:27:57.401Z,12.80
2017-12-04T22:30:24.888Z,13.43
2017-12-04T22:32:52.797Z,13.23
2017-12-04T22:35:20.847Z,13.13
2017-12-04T22:37:48.316Z,13.77
2017-12-04T22:40:15.764Z,13.57
2017-12-04T22:42:43.619Z,12.83
2017-12-04T22:45:11.722Z,13.80
2017-12-04T22:47:39.153Z,13.60
2017-12-04T22:50:06.713Z,13.43
2017-12-04T22:52:34.172Z,13.20
2017-12-04T22:55:01.929Z,13.00
2017-12-04T22:57:29.559Z,13.03
2017-12-04T22:59:57.787Z,13.30
2017-12-04T23:02:26.540Z,14.03
2017-12-04T23:04:53.974Z,13.40
2017-12-04T23:07:22.167Z,14.30
2017-12-04T23:09:49.592Z,14.67
2017-12-04T23:12:17.029Z,14.80
2017-12-04T23:14:45.459Z,14.57
2017-12-04T23:17:12.908Z,14.40
2017-12-04T23:19:41.144Z,12.93
2017-12-04T23:22:08.896Z,13.63
2017-12-04T23:24:36.343Z,16.33
2017-12-04T23:27:04.172Z,15.03
2017-12-04T23:29:35.668Z,15.70
2017-12-04T23:32:03.111Z,17.13
2017-12-04T23:34:30.847Z,16.20
2017-12-04T23:36:58.823Z,16.93
2017-12-04T23:39:26.817Z,17.10
2017-12-04T23:41:54.447Z,16.37
2017-12-04T23:44:21.864Z,17.17
2017-12-04T23:46:49.299Z,17.83
2017-12-04T23:49:16.769Z,17.43
2017-12-04T23:51:45.221Z,18.03
2017-12-04T23:54:12.639Z,17.47
2017-12-04T23:56:40.834Z,16.77
2017-12-04T23:59:08.680Z,16.73
